Time;durP1;ratioP1;P1;durP2;ratioP2;P2;SDS_P1;SDS_P2;PMS_P1;PMS_P2;Temp;Humidity;BMP_temperature;BMP_pressure;BME280_temperature;BME280_humidity;BME280_pressure;Samples;Min_cycle;Max_cycle;Signal;HPM_P1;HPM_P2
2022/11/27 00:07:43;;;;;;;219.60;79.80;;;;;;;3.08;100.00;101670.09;660606;1311;138722;-78
2022/11/27 00:22:47;;;;;;;148.80;48.60;;;;;;;3.06;100.00;101667.95;661047;1301;138877;-78
2022/11/27 00:37:51;;;;;;;168.50;51.50;;;;;;;3.01;100.00;101667.77;660936;1299;138942;-77
2022/11/27 00:52:54;;;;;;;159.00;49.00;;;;;;;2.93;100.00;101658.15;661381;1309;138858;-78
2022/11/27 01:07:57;;;;;;;128.30;45.10;;;;;;;3.01;100.00;101652.02;661731;1310;139404;-78
2022/11/27 01:23:01;;;;;;;141.70;42.20;;;;;;;3.11;100.00;101654.95;661456;1310;138873;-79
2022/11/27 01:38:04;;;;;;;130.10;42.80;;;;;;;3.21;100.00;101656.70;661272;1310;138983;-78
2022/11/27 01:53:16;;;;;;;160.60;51.80;;;;;;;3.21;100.00;101659.27;661384;1310;138814;-78
2022/11/27 02:08:19;;;;;;;139.60;42.20;;;;;;;3.15;100.00;101651.36;661438;1308;138918;-78
2022/11/27 02:23:44;;;;;;;175.60;50.20;;;;;;;3.25;100.00;101654.65;661638;1310;138735;-78
2022/11/27 02:38:54;;;;;;;144.90;43.40;;;;;;;3.34;100.00;101669.20;661401;1310;138769;-78
2022/11/27 02:54:03;;;;;;;128.90;40.50;;;;;;;3.32;100.00;101674.27;661444;1310;138923;-78
2022/11/27 03:09:11;;;;;;;129.40;44.50;;;;;;;3.28;100.00;101674.94;661364;1302;138801;-78
2022/11/27 03:24:15;;;;;;;131.50;44.50;;;;;;;3.29;100.00;101678.71;661408;1309;139441;-80
2022/11/27 03:39:20;;;;;;;118.20;40.50;;;;;;;3.33;100.00;101672.34;661528;1310;138885;-77
2022/11/27 03:54:38;;;;;;;115.20;43.50;;;;;;;3.46;100.00;101674.46;661349;1310;138843;-78
2022/11/27 04:09:41;;;;;;;97.20;37.80;;;;;;;3.48;100.00;101675.63;661552;1307;138968;-79
2022/11/27 04:24:45;;;;;;;96.70;35.00;;;;;;;3.45;100.00;101672.58;661478;1304;138926;-78
2022/11/27 04:39:48;;;;;;;121.50;43.60;;;;;;;3.49;100.00;101666.39;661280;1309;138750;-78
2022/11/27 04:54:51;;;;;;;92.10;34.20;;;;;;;3.60;100.00;101666.20;661401;1310;138962;-80
2022/11/27 05:10:03;;;;;;;94.20;34.20;;;;;;;3.61;100.00;101661.83;660724;1311;138686;-79
2022/11/27 05:25:07;;;;;;;99.90;38.20;;;;;;;3.66;100.00;101650.03;660596;1305;139252;-79
2022/11/27 05:40:11;;;;;;;107.30;38.40;;;;;;;3.79;100.00;101643.33;660894;1312;138687;-79
2022/11/27 05:55:14;;;;;;;97.40;39.20;;;;;;;3.76;100.00;101644.98;660623;1312;139135;-81
2022/11/27 06:10:17;;;;;;;106.90;42.00;;;;;;;3.67;100.00;101642.91;661041;1312;139428;-80
2022/11/27 06:25:21;;;;;;;122.30;44.30;;;;;;;3.68;100.00;101639.05;661162;1301;139188;-80
2022/11/27 06:40:24;;;;;;;102.00;37.80;;;;;;;3.24;100.00;101637.73;661073;1310;138910;-80
2022/11/27 06:55:28;;;;;;;100.10;36.20;;;;;;;3.29;100.00;101638.42;660866;1304;139302;-80
2022/11/27 07:10:34;;;;;;;114.10;43.20;;;;;;;3.32;100.00;101641.25;660951;1304;139268;-79
2022/11/27 07:25:37;;;;;;;105.10;41.40;;;;;;;3.38;100.00;101635.33;660819;1310;138971;-80
2022/11/27 07:40:40;;;;;;;136.50;62.60;;;;;;;3.46;100.00;101636.39;661693;1310;138953;-79
2022/11/27 07:55:45;;;;;;;126.30;50.80;;;;;;;3.56;100.00;101638.85;660738;1308;139052;-79
2022/11/27 08:10:48;;;;;;;221.40;92.00;;;;;;;3.69;100.00;101641.46;661371;1310;138771;-78
2022/11/27 08:25:52;;;;;;;136.00;49.10;;;;;;;3.58;100.00;101646.02;661158;1310;139163;-78
2022/11/27 08:41:00;;;;;;;169.10;64.70;;;;;;;3.72;100.00;101650.36;661183;1300;139062;-78
2022/11/27 08:56:16;;;;;;;126.20;54.50;;;;;;;3.92;100.00;101658.42;660841;1311;138947;-78
2022/11/27 09:11:19;;;;;;;89.80;38.20;;;;;;;4.07;100.00;101665.45;661235;1310;139624;-78
2022/11/27 09:26:24;;;;;;;105.60;42.40;;;;;;;4.15;100.00;101667.74;661199;1310;138921;-78
2022/11/27 09:41:40;;;;;;;130.00;53.00;;;;;;;4.28;100.00;101671.42;661293;1299;139024;-78
2022/11/27 09:56:47;;;;;;;123.10;48.20;;;;;;;4.41;100.00;101668.48;661039;1309;138870;-78
2022/11/27 10:12:25;;;;;;;122.80;49.40;;;;;;;4.49;100.00;101671.10;661142;1310;138948;-78
2022/11/27 10:27:40;;;;;;;169.40;69.30;;;;;;;4.62;100.00;101668.83;660867;1310;139061;-79
2022/11/27 10:43:06;;;;;;;122.10;48.70;;;;;;;4.70;100.00;101658.61;661409;1309;138858;-79
2022/11/27 10:58:23;;;;;;;99.80;44.20;;;;;;;4.73;100.00;101650.19;661378;1308;139267;-80
2022/11/27 11:13:29;;;;;;;148.20;59.40;;;;;;;4.82;100.00;101650.52;661485;1310;139439;-79
2022/11/27 11:28:42;;;;;;;106.70;43.70;;;;;;;4.88;100.00;101645.73;661413;1310;138773;-78
2022/11/27 11:44:01;;;;;;;88.40;39.30;;;;;;;4.97;100.00;101642.42;661569;1305;139050;-78
2022/11/27 11:59:14;;;;;;;111.60;42.20;;;;;;;5.04;100.00;101629.63;661495;1309;138587;-78
2022/11/27 12:14:36;;;;;;;135.30;60.80;;;;;;;5.13;100.00;101612.27;661522;1310;139877;-77
2022/11/27 12:30:14;;;;;;;87.80;36.00;;;;;;;5.28;100.00;101605.20;661671;1309;139079;-78
2022/11/27 12:45:27;;;;;;;167.80;62.20;;;;;;;5.34;100.00;101602.10;661353;1310;138894;-78
2022/11/27 13:00:38;;;;;;;93.00;39.40;;;;;;;5.57;100.00;101601.11;661585;1309;139997;-78
2022/11/27 13:15:49;;;;;;;97.40;44.10;;;;;;;5.49;100.00;101602.84;661476;1310;139031;-77
2022/11/27 13:30:57;;;;;;;110.70;53.80;;;;;;;5.42;100.00;101587.02;661333;1307;138933;-77
2022/11/27 13:46:04;;;;;;;98.90;36.70;;;;;;;5.56;100.00;101573.36;661520;1310;138960;-77
2022/11/27 14:01:16;;;;;;;169.00;60.80;;;;;;;5.60;100.00;101568.19;661375;1310;138783;-77
2022/11/27 14:16:32;;;;;;;123.20;54.00;;;;;;;5.48;100.00;101567.32;661492;1310;138962;-77
2022/11/27 14:31:36;;;;;;;149.70;54.90;;;;;;;5.28;100.00;101572.21;661368;1310;163320;-77
2022/11/27 14:46:40;;;;;;;126.90;52.00;;;;;;;5.07;100.00;101581.63;661725;1295;138941;-77
2022/11/27 15:01:56;;;;;;;150.40;65.10;;;;;;;5.06;100.00;101580.83;661317;1311;139102;-77
2022/11/27 15:17:00;;;;;;;300.10;169.40;;;;;;;4.91;100.00;101581.13;662700;1303;139069;-77
2022/11/27 15:32:24;;;;;;;181.30;76.80;;;;;;;4.86;100.00;101582.36;661076;1313;139439;-77
2022/11/27 15:47:32;;;;;;;182.00;70.70;;;;;;;4.76;100.00;101592.33;661335;1310;138944;-77
2022/11/27 16:02:36;;;;;;;111.20;41.60;;;;;;;4.71;100.00;101590.65;661511;1310;138814;-77
2022/11/27 16:17:40;;;;;;;114.80;45.20;;;;;;;4.63;100.00;101581.63;661468;1308;138982;-77
2022/11/27 16:32:44;;;;;;;110.90;45.50;;;;;;;4.83;100.00;101575.21;661094;1309;139082;-77
2022/11/27 16:47:48;;;;;;;120.20;41.70;;;;;;;4.92;100.00;101569.80;661122;1310;138831;-79
2022/11/27 17:02:52;;;;;;;141.90;49.60;;;;;;;4.76;100.00;101559.39;660926;1305;139920;-76
2022/11/27 17:17:57;;;;;;;124.30;45.60;;;;;;;4.81;100.00;101557.13;661022;1310;139201;-77
2022/11/27 17:33:01;;;;;;;149.00;51.40;;;;;;;4.86;100.00;101548.23;660598;1310;139007;-77
2022/11/27 17:48:05;;;;;;;100.30;36.90;;;;;;;4.94;100.00;101544.05;661602;1310;138828;-77
2022/11/27 18:03:10;;;;;;;119.60;42.30;;;;;;;4.82;100.00;101535.94;661112;1310;138903;-77
2022/11/27 18:18:14;;;;;;;103.80;38.70;;;;;;;4.88;100.00;101520.05;661139;1309;139241;-78
2022/11/27 18:33:18;;;;;;;88.30;32.40;;;;;;;5.04;100.00;101515.17;661357;1310;139077;-77
2022/11/27 18:48:21;;;;;;;112.90;40.30;;;;;;;5.16;100.00;101508.39;661380;1308;138720;-77
2022/11/27 19:03:25;;;;;;;169.50;59.30;;;;;;;5.18;100.00;101498.28;661001;1310;139262;-77
2022/11/27 19:18:28;;;;;;;133.60;52.40;;;;;;;5.12;100.00;101496.77;661439;1309;139424;-77
2022/11/27 19:33:35;;;;;;;104.60;42.40;;;;;;;5.13;100.00;101488.27;661029;1306;139111;-77
2022/11/27 19:48:38;;;;;;;99.60;37.40;;;;;;;5.12;100.00;101494.20;661162;1306;138978;-78
2022/11/27 20:03:43;;;;;;;227.80;69.50;;;;;;;4.85;100.00;101487.25;661329;1304;138874;-78
2022/11/27 20:18:48;;;;;;;124.80;43.80;;;;;;;4.80;100.00;101484.69;660861;1310;139120;-78
2022/11/27 20:33:52;;;;;;;111.90;37.60;;;;;;;4.85;100.00;101472.71;661205;1310;139103;-78
2022/11/27 20:48:56;;;;;;;119.10;42.70;;;;;;;4.92;100.00;101484.34;660874;1296;138861;-78
2022/11/27 21:04:03;;;;;;;122.90;44.00;;;;;;;4.95;100.00;101472.77;661111;1310;138890;-78
2022/11/27 21:19:13;;;;;;;199.30;62.70;;;;;;;4.84;100.00;101459.23;660928;1310;139297;-78
2022/11/27 21:34:16;;;;;;;88.60;28.20;;;;;;;4.84;100.00;101451.42;660667;1296;139490;-78
2022/11/27 21:49:20;;;;;;;79.40;27.10;;;;;;;4.79;100.00;101443.11;660830;1300;138744;-78
2022/11/27 22:04:24;;;;;;;87.90;31.70;;;;;;;4.75;100.00;101434.98;661191;1310;139039;-77
2022/11/27 22:19:27;;;;;;;69.10;29.00;;;;;;;4.72;100.00;101436.20;661217;1310;139140;-77
2022/11/27 22:34:30;;;;;;;83.10;34.20;;;;;;;4.66;100.00;101451.87;661347;1309;138843;-77
2022/11/27 22:49:34;;;;;;;109.70;36.50;;;;;;;4.68;100.00;101456.65;661008;1310;139012;-78
2022/11/27 23:04:38;;;;;;;65.80;23.40;;;;;;;4.75;100.00;101454.08;661404;1310;139011;-78
2022/11/27 23:19:42;;;;;;;165.90;57.80;;;;;;;4.75;100.00;101452.86;661373;1310;138779;-77
2022/11/27 23:34:45;;;;;;;71.80;28.80;;;;;;;4.70;100.00;101455.18;661447;1305;138881;-78
2022/11/27 23:49:49;;;;;;;64.80;27.80;;;;;;;4.63;100.00;101452.20;661490;1310;138920;-78
